Airport View

Enter AWOS ICAO identifier for current METAR.

ex. KFNL

KMDZ 022325Z AUTO 25011G20KT 10SM -VCTSRA BKN110 24/12 A2987 RMK AO2 LTG DSNT S THRU W T02420115

2 Jun 2020 23:27

Frequency: 119.025

Phone: 715-678-6030

Other Area AWOS: KRRL - KMFI - KTKV - KAUW

TAF KAUW 021728Z 0218/0318 28007KT P6SM SKC FM022000 28008KT P6SM SCT045 FM022300 30006KT P6SM VCTS BKN050CB TEMPO 0300/0304 3SM TSRA BKN025CB FM030600 31004KT P6SM BKN090 FM031000 31004KT P6SM SKC